createdAt,value
2023-05-04T00:00:17.133Z,102704.56
2023-05-04T00:02:44.606Z,102704.47
2023-05-04T00:05:12.632Z,102707.84
2023-05-04T00:07:39.866Z,102705.22
2023-05-04T00:10:08.891Z,102698.19
2023-05-04T00:12:36.287Z,102699.91
2023-05-04T00:15:04.577Z,102700.75
2023-05-04T00:17:32.184Z,102695.41
2023-05-04T00:19:59.824Z,102689.31
2023-05-04T00:22:28.153Z,102694.44
2023-05-04T00:24:55.409Z,102692.56
2023-05-04T00:27:22.801Z,102693.38
2023-05-04T00:29:50.183Z,102694.28
2023-05-04T00:32:17.747Z,102695.13
2023-05-04T00:34:45.136Z,102685.53
2023-05-04T00:37:12.375Z,102688.97
2023-05-04T00:39:41.955Z,102688.97
2023-05-04T00:42:09.298Z,102684.66
2023-05-04T00:44:36.915Z,102682.84
2023-05-04T00:47:04.311Z,102678.41
2023-05-04T00:49:31.743Z,102680.97
2023-05-04T00:52:01.344Z,102677.44
2023-05-04T00:54:29.830Z,102673.84
2023-05-04T00:56:57.246Z,102671.09
2023-05-04T00:59:24.539Z,102672.69
2023-05-04T01:01:51.936Z,102666.50
2023-05-04T01:04:19.863Z,102662.88
2023-05-04T01:06:52.792Z,102663.78
2023-05-04T01:09:43.412Z,102657.63
2023-05-04T01:12:34.220Z,102654.97
2023-05-04T01:15:03.078Z,102654.03
2023-05-04T01:17:30.297Z,102655.69
2023-05-04T01:19:57.580Z,102657.31
2023-05-04T01:22:26.668Z,102648.50
2023-05-04T01:24:55.533Z,102646.78
2023-05-04T01:27:42.806Z,102645.09
2023-05-04T01:30:25.834Z,102632.81
2023-05-04T01:32:54.388Z,102638.88
2023-05-04T01:35:22.281Z,102637.88
2023-05-04T01:37:49.532Z,102633.47
2023-05-04T01:40:18.513Z,102638.63
2023-05-04T01:42:46.147Z,102628.16
2023-05-04T01:45:13.494Z,102632.50
2023-05-04T01:47:40.825Z,102630.69
2023-05-04T01:50:08.812Z,102629.88
2023-05-04T01:52:36.109Z,102630.69
2023-05-04T01:55:03.529Z,102629.78
2023-05-04T01:57:32.876Z,102630.59
2023-05-04T02:00:00.152Z,102624.56
2023-05-04T02:02:27.618Z,102629.78
2023-05-04T02:04:54.990Z,102630.69
2023-05-04T02:07:22.465Z,102625.53
2023-05-04T02:09:49.673Z,102629.03
2023-05-04T02:12:16.953Z,102619.41
2023-05-04T02:14:44.159Z,102616.81
2023-05-04T02:17:11.815Z,102608.13
2023-05-04T02:19:39.539Z,102607.22
2023-05-04T02:22:07.740Z,102611.56
2023-05-04T02:24:35.984Z,102606.25
2023-05-04T02:27:03.389Z,102597.53
2023-05-04T02:29:30.716Z,102606.16
2023-05-04T02:31:58.059Z,102600.94
2023-05-04T02:34:25.840Z,102596.59
2023-05-04T02:36:54.997Z,102604.44
2023-05-04T02:39:22.279Z,102606.25
2023-05-04T02:41:49.546Z,102605.38
2023-05-04T02:44:16.756Z,102602.75
2023-05-04T02:46:44.046Z,102599.22
2023-05-04T02:49:11.492Z,102600.13
2023-05-04T02:51:38.768Z,102594.91
2023-05-04T02:54:06.821Z,102587.84
2023-05-04T02:56:34.222Z,102592.28
2023-05-04T02:59:04.812Z,102590.56
2023-05-04T03:01:34.180Z,102590.66
2023-05-04T03:04:02.361Z,102591.53
2023-05-04T03:06:29.879Z,102592.41
2023-05-04T03:08:59.161Z,102580.31
2023-05-04T03:11:27.245Z,102587.34
2023-05-04T03:13:54.636Z,102576.00
2023-05-04T03:16:22.079Z,102570.00
2023-05-04T03:18:51.120Z,102564.78
2023-05-04T03:21:18.567Z,102570.91
2023-05-04T03:23:46.137Z,102564.78
2023-05-04T03:26:13.398Z,102562.09
2023-05-04T03:28:41.034Z,102560.41
2023-05-04T03:31:08.798Z,102569.13
2023-05-04T03:33:36.309Z,102554.25
2023-05-04T03:36:03.850Z,102566.44
2023-05-04T03:38:31.818Z,102554.25
2023-05-04T03:41:00.230Z,102548.19
2023-05-04T03:43:28.246Z,102543.84
2023-05-04T03:45:58.405Z,102541.06
2023-05-04T03:48:25.685Z,102545.50
2023-05-04T03:50:54.028Z,102534.94
2023-05-04T03:53:21.387Z,102540.28
2023-05-04T03:55:48.692Z,102531.53
2023-05-04T03:58:15.990Z,102533.31
2023-05-04T04:00:43.237Z,102536.75
2023-05-04T04:03:15.348Z,102536.75
2023-05-04T04:05:43.054Z,102535.84
2023-05-04T04:08:10.374Z,102533.22
2023-05-04T04:10:37.649Z,102540.28
2023-05-04T04:13:05.085Z,102536.75
2023-05-04T04:15:32.385Z,102531.63
2023-05-04T04:18:01.210Z,102540.34
2023-05-04T04:20:28.483Z,102541.31
2023-05-04T04:22:55.656Z,102547.44
2023-05-04T04:25:23.298Z,102540.47
2023-05-04T04:27:51.296Z,102538.78
2023-05-04T04:30:18.480Z,102536.97
2023-05-04T04:32:47.292Z,102527.34
2023-05-04T04:35:15.016Z,102537.88
2023-05-04T04:37:42.408Z,102538.63
2023-05-04T04:40:10.375Z,102525.63
2023-05-04T04:42:37.694Z,102517.59
2023-05-04T04:45:05.807Z,102519.34
2023-05-04T04:47:33.129Z,102529.97
2023-05-04T04:50:00.434Z,102520.47
2023-05-04T04:52:27.928Z,102523.22
2023-05-04T04:54:55.310Z,102526.00
2023-05-04T04:57:22.748Z,102526.09
2023-05-04T04:59:50.052Z,102527.94
2023-05-04T05:02:17.566Z,102528.13
2023-05-04T05:04:44.796Z,102539.69
2023-05-04T05:07:12.317Z,102531.13
2023-05-04T05:09:41.325Z,102532.97
2023-05-04T05:12:08.535Z,102527.03
2023-05-04T05:14:36.144Z,102526.34
2023-05-04T05:17:08.420Z,102533.44
2023-05-04T05:19:37.210Z,102537.00
2023-05-04T05:22:05.045Z,102537.00
2023-05-04T05:24:32.482Z,102540.59
2023-05-04T05:27:00.704Z,102541.56
2023-05-04T05:29:28.250Z,102540.00
2023-05-04T05:31:55.704Z,102549.88
2023-05-04T05:34:23.252Z,102544.78
2023-05-04T05:36:50.535Z,102545.06
2023-05-04T05:39:17.884Z,102544.47
2023-05-04T05:41:45.314Z,102554.34
2023-05-04T05:44:13.183Z,102544.13
2023-05-04T05:46:40.682Z,102539.19
2023-05-04T05:49:08.054Z,102535.06
2023-05-04T05:51:35.348Z,102531.81
2023-05-04T05:54:02.640Z,102524.19
2023-05-04T05:56:29.992Z,102527.16
2023-05-04T05:58:57.397Z,102519.69
2023-05-04T06:01:24.749Z,102518.38
2023-05-04T06:03:52.251Z,102518.00
2023-05-04T06:06:19.931Z,102514.38
2023-05-04T06:08:47.365Z,102519.63
2023-05-04T06:11:14.993Z,102527.97
2023-05-04T06:13:42.253Z,102510.78
2023-05-04T06:16:09.570Z,102501.63
2023-05-04T06:18:37.013Z,102514.13
2023-05-04T06:21:04.805Z,102501.06
2023-05-04T06:23:32.097Z,102502.81
2023-05-04T06:26:00.686Z,102504.84
2023-05-04T06:28:27.861Z,102500.81
2023-05-04T06:30:55.155Z,102494.00
2023-05-04T06:33:23.670Z,102494.13
2023-05-04T06:35:52.421Z,102471.75
2023-05-04T06:38:19.744Z,102478.25
2023-05-04T06:40:47.370Z,102483.22
2023-05-04T06:43:14.647Z,102488.03
2023-05-04T06:45:41.990Z,102478.53
2023-05-04T06:48:09.297Z,102486.53
2023-05-04T06:50:36.638Z,102479.56
2023-05-04T06:53:05.012Z,102479.66
2023-05-04T06:55:32.288Z,102475.31
2023-05-04T06:57:59.719Z,102470.06
2023-05-04T07:00:27.665Z,102471.16
2023-05-04T07:02:55.435Z,102458.94
2023-05-04T07:05:24.370Z,102455.66
2023-05-04T07:07:51.966Z,102458.00
2023-05-04T07:10:19.632Z,102463.44
2023-05-04T07:12:47.031Z,102459.19
2023-05-04T07:15:14.443Z,102458.63
2023-05-04T07:17:43.020Z,102445.91
2023-05-04T07:20:11.417Z,102440.44
2023-05-04T07:22:38.806Z,102441.75
2023-05-04T07:25:06.657Z,102432.25
2023-05-04T07:27:36.716Z,102430.84
2023-05-04T07:30:06.838Z,102424.06
2023-05-04T07:32:34.399Z,102407.56
2023-05-04T07:35:01.676Z,102413.19
2023-05-04T07:37:29.031Z,102411.44
2023-05-04T07:39:56.382Z,102417.28
2023-05-04T07:42:23.612Z,102413.06
2023-05-04T07:44:52.187Z,102422.38
2023-05-04T07:47:20.159Z,102424.25
2023-05-04T07:49:47.542Z,102419.44
2023-05-04T07:52:14.953Z,102432.78
2023-05-04T07:54:42.359Z,102428.22
2023-05-04T07:57:09.700Z,102410.38
2023-05-04T07:59:36.996Z,102408.50
2023-05-04T08:02:04.429Z,102407.91
2023-05-04T08:04:31.983Z,102411.47
2023-05-04T08:06:59.464Z,102405.81
2023-05-04T08:09:26.921Z,102408.94
2023-05-04T08:11:54.228Z,102402.03
2023-05-04T08:14:22.007Z,102402.22
2023-05-04T08:16:49.322Z,102399.97
2023-05-04T08:19:16.650Z,102391.47
2023-05-04T08:21:43.953Z,102387.16
2023-05-04T08:24:11.449Z,102380.13
2023-05-04T08:26:39.296Z,102388.31
2023-05-04T08:29:08.933Z,102384.00
2023-05-04T08:31:37.049Z,102381.59
2023-05-04T08:34:04.763Z,102372.81
2023-05-04T08:36:32.191Z,102379.28
2023-05-04T08:39:01.087Z,102378.63
2023-05-04T08:41:28.692Z,102384.22
2023-05-04T08:43:56.317Z,102375.56
2023-05-04T08:46:24.767Z,102379.38
2023-05-04T08:48:52.131Z,102370.03
2023-05-04T08:51:20.260Z,102370.38
2023-05-04T08:53:50.382Z,102368.78
2023-05-04T08:56:18.490Z,102364.44
2023-05-04T08:58:50.728Z,102360.22
2023-05-04T09:01:19.653Z,102353.19
2023-05-04T09:03:48.926Z,102358.59
2023-05-04T09:06:16.884Z,102358.63
2023-05-04T09:08:44.535Z,102356.16
2023-05-04T09:11:12.334Z,102357.25
2023-05-04T09:13:42.865Z,102357.34
2023-05-04T09:16:10.817Z,102354.88
2023-05-04T09:18:59.079Z,102353.19
2023-05-04T09:21:30.815Z,102353.34
2023-05-04T09:23:58.496Z,102349.16
2023-05-04T09:26:33.363Z,102347.66
2023-05-04T09:29:14.798Z,102349.75
2023-05-04T09:31:47.577Z,102348.28
2023-05-04T09:34:17.095Z,102346.50
2023-05-04T09:36:44.849Z,102351.06
2023-05-04T09:39:12.885Z,102341.50
2023-05-04T09:41:40.843Z,102336.41
2023-05-04T09:44:22.469Z,102327.00
2023-05-04T09:46:57.615Z,102335.16
2023-05-04T09:49:37.951Z,102322.09
2023-05-04T09:52:06.918Z,102317.97
2023-05-04T09:54:36.302Z,102319.09
2023-05-04T09:57:16.221Z,102310.25
2023-05-04T09:59:43.632Z,102313.13
2023-05-04T10:02:22.615Z,102322.91
2023-05-04T10:04:52.203Z,102299.13
2023-05-04T10:07:21.174Z,102295.66
2023-05-04T10:09:49.254Z,102296.56
2023-05-04T10:12:16.563Z,102284.34
2023-05-04T10:14:47.012Z,102292.41
2023-05-04T10:17:42.029Z,102276.59
2023-05-04T10:20:43.896Z,102268.72
2023-05-04T10:23:42.320Z,102272.31
2023-05-04T10:26:42.048Z,102268.03
2023-05-04T10:29:23.774Z,102265.56
2023-05-04T10:31:53.534Z,102270.13
2023-05-04T10:34:28.015Z,102253.44
2023-05-04T10:36:56.438Z,102250.84
2023-05-04T10:39:26.471Z,102246.50
2023-05-04T10:42:05.528Z,102233.28
2023-05-04T10:44:49.293Z,102232.41
2023-05-04T10:47:33.684Z,102232.59
2023-05-04T10:50:08.926Z,102222.03
2023-05-04T10:52:53.933Z,102223.84
2023-05-04T10:55:22.255Z,102225.66
2023-05-04T10:57:51.300Z,102218.63
2023-05-04T11:00:19.192Z,102207.16
2023-05-04T11:02:47.848Z,102209.94
2023-05-04T11:05:20.718Z,102209.91
2023-05-04T11:07:53.510Z,102202.81
2023-05-04T11:10:25.831Z,102214.41
2023-05-04T11:12:55.414Z,102212.63
2023-05-04T11:15:22.984Z,102210.91
2023-05-04T11:17:53.109Z,102196.78
2023-05-04T11:20:29.577Z,102216.34
2023-05-04T11:22:57.037Z,102206.66
2023-05-04T11:25:29.598Z,102196.03
2023-05-04T11:27:59.171Z,102185.44
2023-05-04T11:30:34.719Z,102186.28
2023-05-04T11:33:04.993Z,102174.72
2023-05-04T11:35:33.457Z,102178.25
2023-05-04T11:38:01.130Z,102188.84
2023-05-04T11:40:28.511Z,102184.41
2023-05-04T11:42:57.760Z,102172.88
2023-05-04T11:45:28.512Z,102171.06
2023-05-04T11:47:59.626Z,102160.44
2023-05-04T11:50:28.806Z,102168.47
2023-05-04T11:53:14.366Z,102157.00
2023-05-04T11:55:42.957Z,102150.75
2023-05-04T11:58:11.692Z,102147.25
2023-05-04T12:00:42.603Z,102152.59
2023-05-04T12:03:15.278Z,102135.81
2023-05-04T12:05:47.970Z,102135.81
2023-05-04T12:08:35.578Z,102133.16
2023-05-04T12:11:25.604Z,102132.28
2023-05-04T12:14:04.342Z,102134.06
2023-05-04T12:16:31.813Z,102118.13
2023-05-04T12:19:04.866Z,102115.47
2023-05-04T12:21:33.240Z,102131.41
2023-05-04T12:24:01.315Z,102121.69
2023-05-04T12:26:28.622Z,102115.47
2023-05-04T12:28:56.696Z,102114.59
2023-05-04T12:31:25.314Z,102116.34
2023-05-04T12:33:53.201Z,102110.13
2023-05-04T12:36:21.620Z,102106.56
2023-05-04T12:38:48.858Z,102121.66
2023-05-04T12:41:16.459Z,102107.47
2023-05-04T12:43:44.017Z,102104.81
2023-05-04T12:46:11.638Z,102103.91
2023-05-04T12:48:39.128Z,102098.59
2023-05-04T12:51:06.553Z,102099.47
2023-05-04T12:53:34.305Z,102094.16
2023-05-04T12:56:02.419Z,102087.91
2023-05-04T12:58:30.689Z,102081.69
2023-05-04T13:00:58.932Z,102070.16
2023-05-04T13:03:26.433Z,102071.94
2023-05-04T13:05:54.078Z,102065.69
2023-05-04T13:08:21.385Z,102069.22
2023-05-04T13:10:48.642Z,102070.94
2023-05-04T13:13:17.871Z,102058.47
2023-05-04T13:15:45.599Z,102054.88
2023-05-04T13:18:13.201Z,102057.53
2023-05-04T13:20:41.347Z,102047.81
2023-05-04T13:23:08.689Z,102042.47
2023-05-04T13:25:36.310Z,102043.41
2023-05-04T13:28:03.910Z,102028.38
2023-05-04T13:30:31.191Z,102022.13
2023-05-04T13:32:58.520Z,102025.63
2023-05-04T13:35:26.006Z,102020.25
2023-05-04T13:37:53.702Z,102025.63
2023-05-04T13:40:21.093Z,102018.50
2023-05-04T13:42:48.444Z,102033.53
2023-05-04T13:45:16.515Z,102014.00
2023-05-04T13:47:44.270Z,102014.00
2023-05-04T13:50:12.124Z,102006.88
2023-05-04T13:52:40.569Z,102007.75
2023-05-04T13:55:09.231Z,102011.25
2023-05-04T13:57:36.656Z,102001.56
2023-05-04T14:00:08.395Z,101998.06
2023-05-04T14:02:38.784Z,101989.31
2023-05-04T14:05:07.814Z,101986.72
2023-05-04T14:07:36.055Z,101993.84
2023-05-04T14:10:03.899Z,101977.03
2023-05-04T14:12:31.459Z,101985.03
2023-05-04T14:14:59.155Z,101979.72
2023-05-04T14:17:26.840Z,101967.34
2023-05-04T14:19:54.242Z,101968.25
2023-05-04T14:22:21.586Z,101964.72
2023-05-04T14:24:50.189Z,101964.66
2023-05-04T14:27:18.634Z,101958.47
2023-05-04T14:29:47.876Z,101959.34
2023-05-04T14:32:15.795Z,101948.72
2023-05-04T14:34:43.268Z,101950.47
2023-05-04T14:37:10.545Z,101952.22
2023-05-04T14:39:39.584Z,101947.72
2023-05-04T14:42:08.636Z,101950.38
2023-05-04T14:44:38.722Z,101937.88
2023-05-04T14:47:07.690Z,101935.19
2023-05-04T14:49:37.555Z,101920.06
2023-05-04T14:52:05.112Z,101921.78
2023-05-04T14:54:32.674Z,101919.94
2023-05-04T14:57:00.326Z,101921.75
2023-05-04T14:59:27.834Z,101911.97
2023-05-04T15:01:55.863Z,101908.44
2023-05-04T15:04:23.248Z,101904.84
2023-05-04T15:06:52.413Z,101906.69
2023-05-04T15:09:19.715Z,101911.16
2023-05-04T15:11:47.179Z,101906.69
2023-05-04T15:14:15.169Z,101904.91
2023-05-04T15:16:42.528Z,101896.91
2023-05-04T15:19:10.005Z,101892.47
2023-05-04T15:21:37.226Z,101887.19
2023-05-04T15:24:04.983Z,101888.91
2023-05-04T15:26:34.445Z,101882.66
2023-05-04T15:29:01.842Z,101891.56
2023-05-04T15:31:32.430Z,101886.25
2023-05-04T15:34:01.227Z,101882.69
2023-05-04T15:36:29.325Z,101886.28
2023-05-04T15:38:56.990Z,101885.41
2023-05-04T15:41:24.282Z,101876.59
2023-05-04T15:43:51.621Z,101870.41
2023-05-04T15:46:24.994Z,101869.50
2023-05-04T15:48:52.286Z,101867.72
2023-05-04T15:51:19.681Z,101868.59
2023-05-04T15:53:47.256Z,101862.41
2023-05-04T15:56:15.628Z,101863.28
2023-05-04T15:58:45.030Z,101853.56
2023-05-04T16:01:14.819Z,101849.97
2023-05-04T16:03:44.053Z,101849.97
2023-05-04T16:06:12.725Z,101841.13
2023-05-04T16:08:40.618Z,101841.13
2023-05-04T16:11:08.254Z,101841.13
2023-05-04T16:13:35.860Z,101840.31
2023-05-04T16:16:03.862Z,101841.19
2023-05-04T16:18:31.150Z,101842.97
2023-05-04T16:20:58.382Z,101840.38
2023-05-04T16:23:26.843Z,101838.59
2023-05-04T16:25:54.262Z,101835.94
2023-05-04T16:28:23.346Z,101835.06
2023-05-04T16:30:50.693Z,101832.41
2023-05-04T16:33:19.685Z,101831.53
2023-05-04T16:35:47.110Z,101816.47
2023-05-04T16:38:14.439Z,101825.34
2023-05-04T16:40:42.601Z,101820.03
2023-05-04T16:43:10.629Z,101817.38
2023-05-04T16:45:40.468Z,101807.63
2023-05-04T16:48:08.035Z,101805.00
2023-05-04T16:50:35.468Z,101806.78
2023-05-04T16:53:03.109Z,101809.47
2023-05-04T16:55:30.915Z,101808.63
2023-05-04T16:57:58.806Z,101802.44
2023-05-04T17:00:26.436Z,101799.78
2023-05-04T17:02:53.964Z,101796.28
2023-05-04T17:05:21.351Z,101797.19
2023-05-04T17:07:48.796Z,101798.94
2023-05-04T17:10:18.256Z,101796.31
2023-05-04T17:12:45.602Z,101796.31
2023-05-04T17:15:12.912Z,101806.09
2023-05-04T17:17:41.475Z,101789.25
2023-05-04T17:20:14.895Z,101789.25
2023-05-04T17:22:43.086Z,101797.28
2023-05-04T17:25:12.433Z,101793.75
2023-05-04T17:27:40.494Z,101790.22
2023-05-04T17:30:14.163Z,101788.47
2023-05-04T17:32:41.777Z,101788.47
2023-05-04T17:35:23.474Z,101789.38
2023-05-04T17:37:59.193Z,101788.50
2023-05-04T17:40:28.525Z,101792.06
2023-05-04T17:42:56.544Z,101791.22
2023-05-04T17:45:24.076Z,101794.75
2023-05-04T17:47:52.297Z,101788.56
2023-05-04T17:50:20.452Z,101785.91
2023-05-04T17:52:52.811Z,101787.66
2023-05-04T17:55:21.152Z,101791.22
2023-05-04T17:57:48.739Z,101784.16
2023-05-04T18:00:20.137Z,101781.50
2023-05-04T18:02:47.710Z,101789.50
2023-05-04T18:05:15.855Z,101780.66
2023-05-04T18:07:44.527Z,101773.56
2023-05-04T18:10:12.124Z,101785.09
2023-05-04T18:12:40.495Z,101782.44
2023-05-04T18:15:09.132Z,101782.44
2023-05-04T18:17:40.772Z,101776.25
2023-05-04T18:20:09.608Z,101779.78
2023-05-04T18:22:37.394Z,101778.03
2023-05-04T18:25:05.390Z,101782.47
2023-05-04T18:27:33.822Z,101776.25
2023-05-04T18:30:02.258Z,101778.94
2023-05-04T18:32:29.893Z,101775.38
2023-05-04T18:35:01.439Z,101784.22
2023-05-04T18:37:31.622Z,101772.75
2023-05-04T18:39:59.520Z,101775.38
2023-05-04T18:42:27.014Z,101778.94
2023-05-04T18:44:55.027Z,101791.31
2023-05-04T18:47:22.475Z,101783.34
2023-05-04T18:49:54.716Z,101778.00
2023-05-04T18:52:22.361Z,101786.88
2023-05-04T18:54:49.807Z,101781.56
2023-05-04T18:57:17.861Z,101791.28
2023-05-04T18:59:45.701Z,101780.69
2023-05-04T19:02:13.073Z,101788.63
2023-05-04T19:04:40.652Z,101784.22
2023-05-04T19:07:09.961Z,101786.81
2023-05-04T19:09:37.766Z,101793.88
2023-05-04T19:12:05.404Z,101792.09
2023-05-04T19:14:33.063Z,101797.41
2023-05-04T19:17:01.183Z,101791.22
2023-05-04T19:19:28.746Z,101795.63
2023-05-04T19:21:56.058Z,101793.84
2023-05-04T19:24:23.573Z,101792.94
2023-05-04T19:26:50.895Z,101797.34
2023-05-04T19:29:18.354Z,101788.50
2023-05-04T19:31:45.861Z,101792.91
2023-05-04T19:34:14.102Z,101791.97
2023-05-04T19:36:42.875Z,101790.19
2023-05-04T19:39:10.739Z,101790.19
2023-05-04T19:41:38.266Z,101786.59
2023-05-04T19:44:10.130Z,101784.78
2023-05-04T19:46:37.833Z,101788.31
2023-05-04T19:49:05.408Z,101790.00
2023-05-04T19:51:33.074Z,101791.75
2023-05-04T19:54:00.272Z,101797.03
2023-05-04T19:56:27.729Z,101789.94
2023-05-04T19:58:54.973Z,101797.84
2023-05-04T20:01:23.225Z,101795.22
2023-05-04T20:03:50.649Z,101798.69
2023-05-04T20:06:18.112Z,101800.44
2023-05-04T20:08:45.507Z,101798.59
2023-05-04T20:11:13.252Z,101801.19
2023-05-04T20:13:40.748Z,101789.69
2023-05-04T20:16:08.638Z,101795.81
2023-05-04T20:18:36.229Z,101797.50
2023-05-04T20:21:03.679Z,101791.28
2023-05-04T20:23:30.913Z,101789.47
2023-05-04T20:25:58.533Z,101793.03
2023-05-04T20:28:25.935Z,101797.41
2023-05-04T20:30:54.499Z,101792.13
2023-05-04T20:33:21.856Z,101791.28
2023-05-04T20:35:49.068Z,101795.69
2023-05-04T20:38:16.546Z,101786.03
2023-05-04T20:40:43.990Z,101784.25
2023-05-04T20:43:11.616Z,101786.03
2023-05-04T20:45:39.294Z,101779.88
2023-05-04T20:48:06.991Z,101780.78
2023-05-04T20:50:34.462Z,101766.69
2023-05-04T20:53:02.324Z,101780.81
2023-05-04T20:55:29.967Z,101779.94
2023-05-04T20:57:57.877Z,101765.81
2023-05-04T21:00:25.511Z,101769.38
2023-05-04T21:02:53.481Z,101765.81
2023-05-04T21:05:20.854Z,101762.22
2023-05-04T21:07:48.194Z,101763.06
2023-05-04T21:10:17.367Z,101767.41
2023-05-04T21:12:44.712Z,101763.81
2023-05-04T21:15:13.078Z,101754.94
2023-05-04T21:17:40.812Z,101759.22
2023-05-04T21:20:09.588Z,101742.41
2023-05-04T21:22:37.171Z,101743.16
2023-05-04T21:25:04.847Z,101742.22
2023-05-04T21:27:32.087Z,101741.25
2023-05-04T21:29:59.391Z,101742.06
2023-05-04T21:32:27.962Z,101741.13
2023-05-04T21:34:55.501Z,101737.56
2023-05-04T21:37:22.791Z,101741.03
2023-05-04T21:39:56.847Z,101741.00
2023-05-04T21:42:24.192Z,101738.34
2023-05-04T21:44:57.394Z,101732.19
2023-05-04T21:47:24.809Z,101738.31
2023-05-04T21:49:53.448Z,101732.16
2023-05-04T21:52:21.671Z,101723.34
2023-05-04T21:54:49.232Z,101731.28
2023-05-04T21:57:16.593Z,101720.69
2023-05-04T21:59:43.933Z,101724.25
2023-05-04T22:02:11.148Z,101726.00
2023-05-04T22:04:42.883Z,101714.56
2023-05-04T22:07:11.148Z,101718.03
2023-05-04T22:09:39.000Z,101719.81
2023-05-04T22:12:07.550Z,101711.00
2023-05-04T22:14:34.851Z,101718.88
2023-05-04T22:17:02.553Z,101706.53
2023-05-04T22:19:29.992Z,101711.72
2023-05-04T22:21:57.506Z,101705.53
2023-05-04T22:24:28.538Z,101704.63
2023-05-04T22:26:55.988Z,101699.34
2023-05-04T22:29:23.394Z,101716.88
2023-05-04T22:31:50.713Z,101707.16
2023-05-04T22:34:18.140Z,101712.38
2023-05-04T22:36:45.327Z,101701.75
2023-05-04T22:39:13.263Z,101695.59
2023-05-04T22:41:40.810Z,101680.56
2023-05-04T22:44:08.747Z,101693.72
2023-05-04T22:46:36.079Z,101697.19
2023-05-04T22:49:04.749Z,101698.00
2023-05-04T22:51:32.548Z,101687.34
2023-05-04T22:54:00.127Z,101689.06
2023-05-04T22:56:28.982Z,101690.78
2023-05-04T22:58:56.829Z,101696.94
2023-05-04T23:01:24.390Z,101696.88
2023-05-04T23:03:52.257Z,101702.97
2023-05-04T23:06:21.826Z,101697.69
2023-05-04T23:08:49.345Z,101693.22
2023-05-04T23:11:20.945Z,101704.63
2023-05-04T23:13:48.301Z,101694.94
2023-05-04T23:16:15.689Z,101695.75
2023-05-04T23:18:43.198Z,101683.41
2023-05-04T23:21:10.461Z,101686.00
2023-05-04T23:23:38.378Z,101685.06
2023-05-04T23:26:05.797Z,101686.78
2023-05-04T23:28:33.201Z,101670.88
2023-05-04T23:31:00.503Z,101665.59
2023-05-04T23:33:28.189Z,101669.94
2023-05-04T23:35:56.066Z,101667.25
2023-05-04T23:38:23.829Z,101666.31
2023-05-04T23:40:51.942Z,101663.66
2023-05-04T23:43:19.459Z,101663.59
2023-05-04T23:45:46.824Z,101660.06
2023-05-04T23:48:14.650Z,101667.00
2023-05-04T23:50:54.188Z,101656.38
2023-05-04T23:53:21.551Z,101665.16
2023-05-04T23:55:58.305Z,101655.41
2023-05-04T23:58:26.292Z,101649.22
